Flight Track Log - Related Links

Times and Time Zones

All times are in EDT time to prevent confusion due to time zone crossing. See the VH-ZWO flight status page for this flight to view local times or setup timezone preferences in your user account.

Time Position Orientation Groundspeed Altitude Reporting Facility
EDT Latitude Longitude Course Direction KTS MPH feet Rate Location/Type
Thu 02:15:57 PM -32.0940 115.8850 57° Northeast 95 109 400  Level FlightAware ADS-B
Thu 02:16:22 PM -32.0860 115.8970 52° Northeast 114 131 800 1,091 Climbing FlightAware ADS-B
Thu 02:16:52 PM -32.0750 115.9120 49° Northeast 130 150 1,400 1,100 Climbing FlightAware ADS-B
Thu 02:17:22 PM -32.0620 115.9300 50° Northeast 147 169 1,900 1,309 Climbing FlightAware ADS-B
Thu 02:17:47 PM -32.0490 115.9440 42° Northeast 145 167 2,600 1,600 Climbing FlightAware ADS-B
Thu 02:18:07 PM -32.0368 115.9577 42° Northeast 153 176 3,100 1,400 Climbing Aus ATC (RADAR)
Thu 02:18:17 PM -32.0330 115.9620 42° Northeast 161 185 3,300 1,500 Climbing FlightAware ADS-B
Thu 02:18:47 PM -32.0180 115.9810 47° Northeast 155 178 4,100 1,527 Climbing FlightAware ADS-B
Thu 02:19:12 PM -32.0034 115.9994 47° Northeast 159 183 4,700 1,200 Climbing Aus ATC (RADAR)
Thu 02:19:12 PM -32.0050 115.9970 47° Northeast 165 190 4,600 1,600 Descending FlightAware ADS-B
Thu 02:19:42 PM -31.9900 116.0170 49° Northeast 155 178 5,500 1,600 Climbing FlightAware ADS-B
Thu 02:20:12 PM -31.9750 116.0360 47° Northeast 157 181 6,200 1,418 Climbing FlightAware ADS-B
Thu 02:20:37 PM -31.9620 116.0530 48° Northeast 160 184 6,800 1,418 Climbing FlightAware ADS-B
Thu 02:21:07 PM -31.9480 116.0740 52° Northeast 163 188 7,500 1,350 Climbing FlightAware ADS-B
Thu 02:21:17 PM -31.9430 116.0820 54° Northeast 173 199 7,700 1,114 Climbing FlightAware ADS-B
Thu 02:22:17 PM -31.9300 116.1430 76° East 194 223 8,800 1,292 Climbing FlightAware ADS-B
Thu 02:23:27 PM -31.9160 116.2140 77° East 194 223 10,500 1,378 Climbing FlightAware ADS-B
Thu 02:24:32 PM -31.9022 116.2840 77° East 192 221 11,900 1,286 Climbing Aus ATC (RADAR)
Thu 02:24:37 PM -31.9020 116.2870 77° East 202 232 12,000 1,313 Climbing FlightAware ADS-B
Thu 02:25:36 PM -31.8891 116.3542 77° East 196 226 13,300 1,292 Climbing Aus ATC (RADAR)
Thu 02:25:42 PM -31.8890 116.3580 77° East 202 232 13,400 1,200 Climbing FlightAware ADS-B
Thu 02:26:41 PM -31.8750 116.4265 77° East 205 236 14,600 1,200 Climbing Aus ATC (RADAR)
Thu 02:26:57 PM -31.8720 116.4440 77° East 217 250 14,900 1,300 Climbing FlightAware ADS-B
Thu 02:27:41 PM -31.8618 116.4957 77° East 210 242 15,900 1,200 Climbing Aus ATC (RADAR)
Thu 02:28:17 PM -31.8540 116.5350 77° East 222 255 16,500 1,114 Climbing FlightAware ADS-B
Thu 02:28:51 PM -31.8456 116.5778 77° East 214 246 17,200 1,059 Climbing Aus ATC (RADAR)
Thu 02:29:42 PM -31.8340 116.6370 77° East 230 265 18,000 843 Climbing FlightAware ADS-B
Thu 02:30:52 PM -31.8170 116.7260 77° East 246 283 18,900 811 Climbing FlightAware ADS-B
Thu 02:30:56 PM -31.8157 116.7335 77° East 237 273 19,000 987 Climbing Aus ATC (RADAR)
Thu 02:32:11 PM -31.7962 116.8335 77° East 245 282 20,200 947 Climbing Aus ATC (RADAR)
Thu 02:32:12 PM -31.7960 116.8330 77° East 253 291 20,200 800 Level FlightAware ADS-B
Thu 02:33:11 PM -31.7801 116.9146 77° East 247 284 21,000 831 Climbing Aus ATC (RADAR)
Thu 02:33:17 PM -31.7790 116.9210 77° East 258 297 21,100 738 Climbing FlightAware ADS-B
Thu 02:34:16 PM -31.7623 117.0040 77° East 252 290 21,800 632 Climbing Aus ATC (RADAR)
Thu 02:34:52 PM -31.7540 117.0470 77° East 263 303 22,100 700 Climbing FlightAware ADS-B
Thu 02:35:16 PM -31.7457 117.0875 77° East 256 295 22,500 800 Climbing Aus ATC (RADAR)
Thu 02:35:37 PM -31.7410 117.1120 77° East 264 304 22,700 536 Climbing FlightAware ADS-B
Thu 02:36:12 PM -31.7320 117.1590 77° East 266 306 23,000 640 Climbing FlightAware ADS-B
Thu 02:36:52 PM -31.7200 117.2170 76° East 268 308 23,500 706 Climbing FlightAware ADS-B
Thu 02:37:20 PM -31.7105 117.2644 76° East 261 300 23,800 600 Climbing Aus ATC (RADAR)
Thu 02:37:42 PM -31.7060 117.2880 76° East 272 313 24,000 627 Climbing FlightAware ADS-B
Thu 02:38:27 PM -31.6930 117.3530 77° East 275 316 24,500 565 Climbing FlightAware ADS-B
Thu 02:39:07 PM -31.6810 117.4110 76° East 275 316 24,800 571 Climbing FlightAware ADS-B
Thu 02:39:30 PM -31.6725 117.4526 76° East 268 308 25,100 450 Climbing Aus ATC (RADAR)
Thu 02:39:47 PM -31.6690 117.4710 76° East 284 327 25,100 -105 Level FlightAware ADS-B
Thu 02:40:27 PM -31.6560 117.5340 76° East 297 342 25,000 -71 Descending FlightAware ADS-B
Thu 02:41:12 PM -31.6420 117.6050 77° East 307 353 25,000  Level FlightAware ADS-B
Thu 02:41:40 PM -31.6308 117.6579 77° East 299 344 25,000 150 Level Aus ATC (RADAR)
Thu 02:41:52 PM -31.6280 117.6710 77° East 308 354 25,100 105 Climbing FlightAware ADS-B
Thu 02:42:37 PM -31.6130 117.7440 76° East 311 358 25,100 -80 Level FlightAware ADS-B
Thu 02:43:07 PM -31.6030 117.7940 77° East 315 362 25,000 -88 Descending FlightAware ADS-B
Thu 02:43:45 PM -31.5888 117.8647 77° East 310 357 25,000  Level Aus ATC (RADAR)
Thu 02:43:47 PM -31.5890 117.8630 77° East 317 365 25,000  Level FlightAware ADS-B
Thu 02:44:47 PM -31.5680 117.9640 76° East 317 365 25,000  Level FlightAware ADS-B
Thu 02:45:32 PM -31.5520 118.0400 76° East 316 364 25,000  Level FlightAware ADS-B
Thu 02:45:55 PM -31.5427 118.0825 76° East 311 358 25,000  Level Aus ATC (RADAR)
Thu 02:46:17 PM -31.5370 118.1120 76° East 316 364 25,000  Level FlightAware ADS-B
Thu 02:47:02 PM -31.5210 118.1890 76° East 316 364 25,000  Level FlightAware ADS-B
Thu 02:47:37 PM -31.5090 118.2470 76° East 315 362 25,000  Level FlightAware ADS-B
Thu 02:47:55 PM -31.5008 118.2827 76° East 311 358 25,000  Level Aus ATC (RADAR)
Thu 02:48:22 PM -31.4930 118.3230 76° East 316 364 25,000  Level FlightAware ADS-B
Thu 02:48:59 PM -31.4784 118.3910 76° East 309 356 25,000  Level Aus ATC (RADAR)
Thu 02:49:07 PM -31.4780 118.3970 76° East 315 362 25,000  Level FlightAware ADS-B
Thu 02:49:47 PM -31.4630 118.4640 75° East 315 362 25,000  Level FlightAware ADS-B
Thu 02:50:27 PM -31.4490 118.5310 76° East 315 362 25,000  Level FlightAware ADS-B
Thu 02:51:09 PM -31.4324 118.6073 76° East 311 358 25,000  Level Aus ATC (RADAR)
Thu 02:51:12 PM -31.4330 118.6050 76° East 315 362 25,000  Level FlightAware ADS-B
Thu 02:51:52 PM -31.4190 118.6710 76° East 315 362 25,000  Level FlightAware ADS-B
Thu 02:52:09 PM -31.4111 118.7071 76° East 311 358 25,000  Level Aus ATC (RADAR)
Thu 02:52:37 PM -31.4030 118.7460 76° East 314 361 25,000  Level FlightAware ADS-B
Thu 02:53:14 PM -31.3888 118.8145 76° East 308 354 25,000  Level Aus ATC (RADAR)
Thu 02:53:27 PM -31.3880 118.8210 76° East 313 360 25,000  Level FlightAware ADS-B
Thu 02:54:07 PM -31.3770 118.8770 77° East 313 360 25,000  Level FlightAware ADS-B
Thu 02:54:47 PM -31.3660 118.9340 77° East 313 360 25,000  Level FlightAware ADS-B
Thu 02:55:24 PM -31.3417 119.0284 77° East 307 353 25,000  Level Aus ATC (RADAR)
Thu 02:55:37 PM -31.3520 119.0040 77° East 313 360 25,000  Level FlightAware ADS-B
Thu 02:56:17 PM -31.3410 119.0600 77° East 313 360 25,000  Level FlightAware ADS-B
Thu 02:56:57 PM -31.3300 119.1160 77° East 313 360 25,000 78 Level FlightAware ADS-B
Thu 02:57:34 PM -31.2954 119.2405 77° East 304 350 25,100 62 Climbing Aus ATC (RADAR)
Thu 02:58:34 PM -31.2740 119.3373 76° East 302 348 25,100  Level Aus ATC (RADAR)
Thu 02:59:38 PM -31.2516 119.4422 76° East 301 346 25,100  Level Aus ATC (RADAR)
Thu 03:00:43 PM -31.2261 119.5472 74° East 306 352 25,100  Level Aus ATC (RADAR)
Thu 03:02:33 PM -31.1909 119.7234 77° East 304 350 25,100  Level Aus ATC (RADAR)
Thu 03:05:38 PM -31.1185 120.0507 75° East 300 -6,470 Descending Aus ATC (Calculated)
Thu 03:06:23 PM -31.0988 120.1393 74° East 300  Level Aus ATC (Calculated)
Thu 03:07:00 PM -31.0928 120.1638 75° East  Level Estimated
Thu 03:07:39 PM -31.0802 120.2223 75° East 300  Level Aus ATC (Calculated)
Thu 03:08:00 PM -31.0682 120.2730 75° East  Level Estimated
Thu 03:09:00 PM -31.0546 120.3339 75° East  Level Estimated
Thu 03:09:44 PM -31.0452 120.3778 74° East 300  Level Aus ATC (Calculated)
Thu 03:10:00 PM -31.0355 120.4166 75° East  Level Estimated
Thu 03:11:00 PM -31.0210 120.4825 75° East  Level Estimated
Thu 03:12:00 PM -31.0018 120.5650 75° East  Level Estimated
Thu 03:13:00 PM -30.9825 120.6476 75° East  Level Estimated
Thu 03:14:00 PM -30.9632 120.7301 75° East  Level Estimated
Thu 03:15:00 PM -30.9439 120.8125 75° East  Level Estimated
Thu 03:16:00 PM -30.9245 120.8950 75° East  Level Estimated
Thu 03:17:00 PM -30.9050 120.9773 75° East  Level Estimated
Thu 03:18:00 PM -30.8855 121.0597 75° East  Level Estimated
Thu 03:19:00 PM -30.8660 121.1420 75° East  Level Estimated
Thu 03:20:00 PM -30.8463 121.2243 75° East  Level Estimated
Thu 03:21:00 PM -30.8267 121.3066 74° East  Level Estimated
Thu 03:22:00 PM -30.8070 121.3888 74° East  Level Estimated
Thu 03:22:44 PM -30.7894 121.4617 213° Southwest  Level Aus ATC (Calculated)
Thu 03:23:00 PM -30.7894 121.4617 74° East  Level Estimated
Thu 03:24:00 PM -30.7894 121.4617 213° Southwest  Level Estimated
Thu 03:25:00 PM -30.7894 121.4617 213° Southwest  Level Estimated
Thu 03:26:00 PM -30.7894 121.4617 213° Southwest  Level Estimated
Thu 03:27:00 PM -30.7894 121.4617 213° Southwest  Level Estimated
Thu 03:28:00 PM -30.7894 121.4617 213° Southwest  Level Estimated
Thu 03:29:00 PM -30.7894 121.4617 213° Southwest  Level Estimated
Thu 03:30:00 PM -30.7894 121.4617 213° Southwest  Level Estimated

Login

Don't have an account? Register now (free) for customized features, flight alerts, and more!